KOCH/OCH METAR and TAF weather

Enter ICAO airport designator
Station Type Date Time Source
KOCH METAR 2023/02/06 18:19 UTC NOAA

KOCH 061819Z AUTO 17010KT 10SM FEW025 BKN034 OVC040 20/15 A3009 RMK AO2 PWINO $


Station Type Date Time Source
KOCH Decoded METAR 2023/02/06 18:19 UTC NOAA

Nacogdoches, A L Mangham Jr. Regional Airport, TX, United States (KOCH) 31-35N 094-43W
Feb 06, 2023 - 01:19 PM EST / 2023.02.06 1819 UTC
Wind: from the S (170 degrees) at 12 MPH (10 KT):0
Visibility: 10 mile(s):0
Sky conditions: overcast
Temperature: 68 F (20 C)
Dew Point: 59 F (15 C)
Relative Humidity: 72%
Pressure (altimeter): 30.09 in. Hg (1018 hPa)
ob: KOCH 061819Z AUTO 17010KT 10SM FEW025 BKN034 OVC040 20/15 A3009 RMK AO2 PWINO
cycle: 18

Station Type Date Time Source
KOCH TAF UTC NOAA

Error!

Example: see airport list